createdAt,value
2023-02-01T00:00:53.079Z,4.25
2023-02-01T00:03:43.123Z,3.95
2023-02-01T00:06:33.479Z,3.47
2023-02-01T00:09:24.463Z,3.45
2023-02-01T00:12:14.839Z,3.15
2023-02-01T00:15:05.915Z,2.95
2023-02-01T00:17:56.360Z,2.83
2023-02-01T00:20:47.914Z,2.60
2023-02-01T00:23:39.659Z,2.90
2023-02-01T00:26:34.274Z,2.70
2023-02-01T00:29:24.856Z,2.28
2023-02-01T00:32:15.405Z,2.70
2023-02-01T00:35:06.121Z,2.60
2023-02-01T00:37:56.235Z,2.83
2023-02-01T00:40:46.460Z,2.45
2023-02-01T00:43:36.918Z,2.50
2023-02-01T00:46:27.386Z,2.33
2023-02-01T00:49:17.475Z,2.38
2023-02-01T00:52:07.492Z,2.25
2023-02-01T00:54:57.885Z,2.33
2023-02-01T00:57:48.054Z,2.40
2023-02-01T01:00:37.967Z,2.17
2023-02-01T01:03:30.415Z,2.40
2023-02-01T01:06:23.523Z,2.38
2023-02-01T01:09:13.678Z,2.20
2023-02-01T01:12:04.045Z,2.45
2023-02-01T01:14:55.395Z,2.22
2023-02-01T01:17:45.327Z,2.45
2023-02-01T01:20:38.223Z,2.22
2023-02-01T01:23:28.768Z,2.10
2023-02-01T01:26:21.585Z,2.80
2023-02-01T01:29:12.245Z,2.40
2023-02-01T01:32:02.769Z,2.30
2023-02-01T01:34:53.295Z,2.50
2023-02-01T01:37:43.632Z,2.60
2023-02-01T01:40:33.786Z,2.30
2023-02-01T01:43:24.063Z,2.20
2023-02-01T01:46:25.874Z,2.50
2023-02-01T01:49:21.487Z,2.83
2023-02-01T01:52:12.586Z,3.13
2023-02-01T01:55:03.390Z,2.30
2023-02-01T01:58:02.950Z,2.22
2023-02-01T02:00:54.889Z,2.40
2023-02-01T02:03:48.678Z,2.47
2023-02-01T02:06:58.430Z,2.35
2023-02-01T02:10:00.149Z,2.03
2023-02-01T02:12:51.355Z,2.30
2023-02-01T02:15:49.464Z,2.03
2023-02-01T02:18:55.124Z,2.30
2023-02-01T02:21:57.656Z,2.22
2023-02-01T02:25:25.298Z,2.22
2023-02-01T02:28:50.774Z,2.08
2023-02-01T02:32:19.475Z,1.90
2023-02-01T02:35:37.543Z,2.03
2023-02-01T02:38:42.617Z,2.00
2023-02-01T02:41:55.872Z,2.30
2023-02-01T02:45:26.860Z,1.70
2023-02-01T02:48:38.452Z,1.77
2023-02-01T02:52:31.638Z,2.00
2023-02-01T02:55:22.801Z,1.98
2023-02-01T02:58:33.058Z,1.80
2023-02-01T03:01:41.910Z,1.88
2023-02-01T03:04:32.077Z,1.80
2023-02-01T03:07:54.566Z,1.80
2023-02-01T03:11:11.843Z,1.50
2023-02-01T03:14:07.451Z,1.38
2023-02-01T03:17:09.764Z,1.70
2023-02-01T03:20:04.050Z,1.90
2023-02-01T03:22:54.975Z,1.92
2023-02-01T03:25:47.614Z,1.90
2023-02-01T03:28:43.816Z,2.25
2023-02-01T03:31:34.138Z,1.60
2023-02-01T03:34:24.776Z,2.08
2023-02-01T03:37:23.930Z,2.28
2023-02-01T03:40:16.714Z,1.90
2023-02-01T03:43:12.838Z,2.22
2023-02-01T03:46:08.419Z,2.22
2023-02-01T03:48:59.382Z,2.08
2023-02-01T03:51:52.081Z,2.40
2023-02-01T03:54:43.889Z,2.00
2023-02-01T03:57:39.167Z,1.85
2023-02-01T04:00:30.107Z,2.20
2023-02-01T04:03:22.687Z,2.00
2023-02-01T04:06:14.330Z,1.60
2023-02-01T04:09:04.511Z,2.40
2023-02-01T04:11:54.764Z,1.40
2023-02-01T04:14:44.677Z,1.80
2023-02-01T04:17:35.332Z,1.85
2023-02-01T04:20:25.773Z,1.67
2023-02-01T04:23:16.694Z,1.45
2023-02-01T04:26:07.014Z,1.63
2023-02-01T04:28:57.397Z,1.30
2023-02-01T04:31:47.770Z,1.90
2023-02-01T04:34:38.282Z,1.65
2023-02-01T04:37:28.425Z,1.80
2023-02-01T04:40:18.933Z,1.67
2023-02-01T04:43:09.131Z,2.03
2023-02-01T04:45:59.364Z,1.70
2023-02-01T04:48:49.548Z,1.60
2023-02-01T04:51:40.803Z,1.92
2023-02-01T04:54:30.764Z,1.48
2023-02-01T04:57:21.145Z,1.80
2023-02-01T05:00:12.069Z,1.75
2023-02-01T05:03:02.391Z,2.10
2023-02-01T05:05:54.567Z,1.88
2023-02-01T05:08:44.538Z,1.85
2023-02-01T05:11:53.143Z,1.30
2023-02-01T05:14:43.118Z,1.63
2023-02-01T05:17:33.487Z,1.63
2023-02-01T05:20:25.028Z,1.80
2023-02-01T05:23:15.467Z,1.58
2023-02-01T05:26:05.649Z,2.03
2023-02-01T05:28:55.921Z,1.95
2023-02-01T05:31:47.135Z,1.95
2023-02-01T05:34:38.040Z,1.85
2023-02-01T05:37:28.239Z,1.80
2023-02-01T05:40:18.492Z,1.80
2023-02-01T05:43:08.690Z,2.10
2023-02-01T05:45:58.860Z,1.88
2023-02-01T05:48:48.791Z,1.38
2023-02-01T05:51:38.819Z,1.90
2023-02-01T05:54:28.829Z,1.60
2023-02-01T05:57:18.811Z,1.60
2023-02-01T06:00:09.560Z,1.60
2023-02-01T06:05:53.264Z,1.60
2023-02-01T06:08:43.765Z,1.10
2023-02-01T06:11:33.693Z,1.35
2023-02-01T06:14:24.712Z,1.58
2023-02-01T06:17:14.921Z,1.70
2023-02-01T06:20:07.825Z,1.70
2023-02-01T06:22:58.338Z,2.55
2023-02-01T06:25:48.707Z,2.63
2023-02-01T06:28:39.931Z,2.42
2023-02-01T06:31:30.183Z,2.72
2023-02-01T06:34:23.279Z,2.80
2023-02-01T06:37:13.447Z,3.10
2023-02-01T06:40:03.751Z,3.65
2023-02-01T06:42:53.632Z,3.05
2023-02-01T06:45:43.654Z,3.75
2023-02-01T06:48:34.367Z,3.47
2023-02-01T06:51:29.288Z,3.80
2023-02-01T06:54:19.553Z,3.88
2023-02-01T06:57:09.436Z,3.70
2023-02-01T06:59:59.580Z,4.20
2023-02-01T07:02:50.491Z,3.65
2023-02-01T07:05:40.776Z,4.22
2023-02-01T07:08:33.205Z,3.67
2023-02-01T07:11:23.581Z,4.28
2023-02-01T07:14:13.999Z,4.20
2023-02-01T07:17:04.214Z,4.30
2023-02-01T07:19:54.014Z,4.15
2023-02-01T07:22:43.821Z,4.72
2023-02-01T07:25:35.627Z,4.35
2023-02-01T07:28:26.701Z,4.80
2023-02-01T07:31:22.430Z,4.85
2023-02-01T07:34:12.880Z,5.15
2023-02-01T07:37:03.876Z,5.78
2023-02-01T07:39:54.332Z,5.28
2023-02-01T07:42:44.267Z,5.90
2023-02-01T07:45:37.065Z,5.60
2023-02-01T07:48:28.096Z,5.75
2023-02-01T07:51:18.869Z,6.05
2023-02-01T07:54:09.041Z,5.22
2023-02-01T07:56:59.010Z,5.43
2023-02-01T08:00:07.505Z,5.63
2023-02-01T08:03:04.969Z,4.72
2023-02-01T08:05:56.532Z,5.10
2023-02-01T08:08:48.214Z,4.97
2023-02-01T08:11:38.947Z,4.15
2023-02-01T08:14:29.533Z,5.00
2023-02-01T08:17:19.968Z,5.45
2023-02-01T08:20:11.097Z,4.35
2023-02-01T08:23:01.573Z,4.30
2023-02-01T08:25:51.648Z,4.20
2023-02-01T08:28:49.319Z,4.25
2023-02-01T08:31:41.914Z,4.22
2023-02-01T08:34:33.585Z,4.40
2023-02-01T08:37:24.875Z,4.68
2023-02-01T08:40:15.419Z,4.55
2023-02-01T08:43:05.808Z,4.10
2023-02-01T08:45:57.186Z,4.05
2023-02-01T08:48:48.547Z,3.70
2023-02-01T08:51:38.601Z,4.25
2023-02-01T08:54:28.425Z,4.50
2023-02-01T08:57:18.988Z,4.22
2023-02-01T09:00:13.469Z,4.25
2023-02-01T09:03:03.604Z,4.18
2023-02-01T09:06:00.178Z,4.47
2023-02-01T09:08:49.924Z,3.90
2023-02-01T09:11:40.417Z,4.00
2023-02-01T09:14:31.113Z,3.10
2023-02-01T09:17:21.353Z,3.22
2023-02-01T09:20:12.219Z,3.10
2023-02-01T09:23:02.450Z,3.58
2023-02-01T09:25:53.088Z,3.50
2023-02-01T09:28:43.298Z,2.70
2023-02-01T09:31:33.751Z,3.33
2023-02-01T09:34:24.109Z,3.30
2023-02-01T09:37:14.133Z,3.70
2023-02-01T09:40:05.196Z,3.40
2023-02-01T09:43:23.152Z,3.28
2023-02-01T09:46:33.832Z,4.13
2023-02-01T09:49:33.686Z,3.05
2023-02-01T09:52:51.932Z,3.28
2023-02-01T09:55:54.111Z,2.75
2023-02-01T09:59:00.854Z,3.13
2023-02-01T10:01:50.992Z,2.72
2023-02-01T10:04:41.467Z,3.40
2023-02-01T10:07:43.201Z,3.33
2023-02-01T10:10:44.624Z,3.08
2023-02-01T10:14:00.183Z,2.80
2023-02-01T10:17:04.841Z,3.67
2023-02-01T10:20:25.922Z,2.80
2023-02-01T10:23:36.251Z,3.13
2023-02-01T10:26:33.716Z,2.80
2023-02-01T10:29:27.488Z,2.78
2023-02-01T10:32:22.575Z,2.33
2023-02-01T10:35:17.924Z,3.08
2023-02-01T10:38:21.175Z,3.13
2023-02-01T10:41:15.873Z,3.38
2023-02-01T10:44:12.683Z,3.10
2023-02-01T10:47:02.669Z,3.25
2023-02-01T10:50:04.756Z,3.20
2023-02-01T10:53:07.616Z,2.80
2023-02-01T10:55:58.202Z,3.50
2023-02-01T10:58:49.199Z,2.67
2023-02-01T11:01:42.189Z,3.45
2023-02-01T11:04:36.656Z,2.78
2023-02-01T11:07:27.316Z,3.13
2023-02-01T11:10:36.165Z,3.70
2023-02-01T11:13:31.656Z,3.03
2023-02-01T11:16:22.020Z,3.58
2023-02-01T11:19:16.617Z,3.65
2023-02-01T11:22:06.968Z,2.95
2023-02-01T11:24:58.185Z,3.10
2023-02-01T11:27:55.340Z,3.15
2023-02-01T11:30:48.130Z,2.78
2023-02-01T11:33:44.097Z,2.60
2023-02-01T11:36:36.807Z,2.58
2023-02-01T11:39:31.236Z,2.70
2023-02-01T11:42:21.897Z,2.40
2023-02-01T11:45:28.072Z,2.50
2023-02-01T11:48:26.904Z,3.13
2023-02-01T11:51:29.431Z,2.40
2023-02-01T11:54:45.747Z,2.25
2023-02-01T11:57:48.584Z,2.28
2023-02-01T12:01:00.465Z,2.58
2023-02-01T12:04:05.405Z,2.90
2023-02-01T12:10:19.067Z,2.47
2023-02-01T12:13:21.178Z,3.25
2023-02-01T12:16:29.871Z,3.10
2023-02-01T12:19:35.850Z,2.50
2023-02-01T12:23:02.254Z,2.42
2023-02-01T12:25:58.517Z,2.35
2023-02-01T12:29:15.558Z,2.78
2023-02-01T12:32:27.809Z,2.60
2023-02-01T12:35:39.463Z,2.20
2023-02-01T12:38:39.436Z,3.00
2023-02-01T12:41:57.462Z,2.50
2023-02-01T12:44:57.506Z,2.90
2023-02-01T12:47:54.929Z,2.80
2023-02-01T12:51:00.189Z,2.80
2023-02-01T12:53:58.166Z,2.90
2023-02-01T12:57:03.992Z,2.60
2023-02-01T13:00:28.931Z,2.47
2023-02-01T13:03:35.786Z,2.30
2023-02-01T13:06:34.031Z,2.50
2023-02-01T13:09:37.578Z,2.30
2023-02-01T13:12:48.320Z,2.42
2023-02-01T13:15:54.706Z,2.97
2023-02-01T13:18:51.223Z,2.45
2023-02-01T13:21:47.514Z,2.60
2023-02-01T13:24:46.257Z,2.53
2023-02-01T13:27:36.188Z,2.72
2023-02-01T13:30:49.564Z,3.38
2023-02-01T13:34:21.059Z,2.95
2023-02-01T13:37:28.544Z,3.00
2023-02-01T13:40:38.247Z,2.88
2023-02-01T13:43:30.904Z,2.90
2023-02-01T13:46:21.672Z,2.70
2023-02-01T13:49:22.727Z,2.50
2023-02-01T13:52:41.231Z,3.38
2023-02-01T13:55:35.724Z,2.80
2023-02-01T13:58:40.971Z,2.88
2023-02-01T14:01:31.132Z,2.97
2023-02-01T14:04:48.218Z,2.72
2023-02-01T14:08:03.949Z,3.08
2023-02-01T14:10:56.660Z,2.03
2023-02-01T14:13:46.823Z,3.08
2023-02-01T14:16:36.836Z,2.50
2023-02-01T14:19:35.548Z,2.58
2023-02-01T14:22:35.142Z,1.98
2023-02-01T14:25:25.389Z,2.58
2023-02-01T14:28:27.082Z,2.25
2023-02-01T14:31:41.164Z,2.70
2023-02-01T14:34:35.287Z,2.30
2023-02-01T14:37:29.990Z,2.95
2023-02-01T14:40:29.227Z,3.60
2023-02-01T14:43:52.066Z,3.10
2023-02-01T14:47:20.181Z,2.95
2023-02-01T14:50:29.229Z,2.88
2023-02-01T14:53:24.552Z,3.33
2023-02-01T14:56:21.255Z,2.65
2023-02-01T14:59:16.975Z,2.67
2023-02-01T15:02:21.569Z,3.17
2023-02-01T15:08:19.269Z,2.47
2023-02-01T15:11:16.457Z,2.40
2023-02-01T15:14:15.409Z,3.15
2023-02-01T15:17:23.352Z,2.17
2023-02-01T15:20:20.950Z,2.88
2023-02-01T15:23:18.363Z,2.55
2023-02-01T15:26:08.781Z,2.95
2023-02-01T15:28:59.656Z,2.45
2023-02-01T15:31:52.075Z,2.60
2023-02-01T15:34:48.663Z,2.47
2023-02-01T15:37:39.077Z,2.20
2023-02-01T15:40:29.190Z,2.40
2023-02-01T15:43:19.427Z,2.42
2023-02-01T15:46:12.948Z,2.67
2023-02-01T15:49:04.209Z,2.65
2023-02-01T15:51:55.734Z,2.10
2023-02-01T15:54:51.260Z,2.83
2023-02-01T15:57:43.011Z,2.70
2023-02-01T16:00:44.255Z,2.95
2023-02-01T16:03:44.321Z,2.67
2023-02-01T16:06:35.382Z,2.50
2023-02-01T16:09:37.290Z,2.13
2023-02-01T16:12:39.307Z,2.80
2023-02-01T16:15:30.810Z,2.75
2023-02-01T16:18:21.210Z,2.88
2023-02-01T16:21:12.081Z,2.63
2023-02-01T16:24:04.947Z,2.22
2023-02-01T16:26:55.559Z,2.13
2023-02-01T16:29:46.074Z,2.65
2023-02-01T16:32:39.069Z,2.88
2023-02-01T16:35:36.727Z,2.55
2023-02-01T16:38:27.573Z,2.97
2023-02-01T16:41:19.723Z,3.33
2023-02-01T16:44:09.642Z,3.15
2023-02-01T16:47:00.015Z,2.85
2023-02-01T16:49:50.219Z,3.30
2023-02-01T16:52:41.300Z,3.00
2023-02-01T16:55:32.551Z,2.88
2023-02-01T16:58:22.838Z,3.00
2023-02-01T17:01:16.213Z,2.78
2023-02-01T17:04:06.853Z,3.92
2023-02-01T17:06:57.047Z,2.58
2023-02-01T17:09:48.189Z,3.05
2023-02-01T17:12:38.627Z,2.95
2023-02-01T17:15:35.484Z,3.10
2023-02-01T17:18:31.504Z,2.92
2023-02-01T17:21:22.323Z,2.53
2023-02-01T17:24:15.190Z,2.60
2023-02-01T17:27:05.539Z,2.80
2023-02-01T17:29:57.078Z,2.35
2023-02-01T17:32:46.865Z,2.28
2023-02-01T17:35:37.213Z,2.63
2023-02-01T17:38:27.604Z,2.90
2023-02-01T17:41:17.584Z,2.58
2023-02-01T17:44:10.569Z,2.60
2023-02-01T17:47:00.828Z,2.78
2023-02-01T17:49:56.262Z,2.55
2023-02-01T17:52:46.621Z,2.95
2023-02-01T17:55:40.737Z,3.40
2023-02-01T17:58:33.310Z,2.33
2023-02-01T18:01:25.121Z,2.60
2023-02-01T18:04:18.699Z,2.53
2023-02-01T18:07:09.125Z,2.45
2023-02-01T18:09:59.332Z,2.53
2023-02-01T18:12:49.929Z,2.90
2023-02-01T18:15:40.003Z,3.03
2023-02-01T18:18:33.345Z,2.75
2023-02-01T18:21:23.809Z,3.20
2023-02-01T18:24:15.431Z,2.70
2023-02-01T18:27:05.403Z,3.83
2023-02-01T18:29:55.716Z,3.08
2023-02-01T18:32:47.520Z,2.97
2023-02-01T18:35:37.747Z,2.70
2023-02-01T18:38:27.729Z,2.90
2023-02-01T18:41:25.995Z,3.22
2023-02-01T18:44:17.034Z,2.67
2023-02-01T18:47:07.389Z,2.92
2023-02-01T18:49:57.707Z,2.85
2023-02-01T18:52:48.524Z,2.30
2023-02-01T18:55:38.698Z,2.40
2023-02-01T18:58:28.917Z,2.78
2023-02-01T19:01:21.662Z,3.00
2023-02-01T19:04:24.908Z,2.17
2023-02-01T19:07:15.841Z,2.40
2023-02-01T19:10:09.055Z,2.65
2023-02-01T19:12:59.049Z,2.03
2023-02-01T19:15:49.024Z,2.28
2023-02-01T19:18:40.028Z,2.22
2023-02-01T19:21:29.678Z,3.20
2023-02-01T19:24:19.552Z,2.42
2023-02-01T19:27:10.642Z,2.30
2023-02-01T19:30:00.667Z,3.22
2023-02-01T19:32:52.264Z,2.38
2023-02-01T19:35:42.253Z,2.88
2023-02-01T19:38:33.554Z,2.33
2023-02-01T19:41:23.777Z,2.60
2023-02-01T19:44:14.568Z,2.70
2023-02-01T19:47:04.674Z,2.65
2023-02-01T19:49:54.717Z,2.97
2023-02-01T19:52:45.727Z,2.17
2023-02-01T19:55:35.524Z,2.78
2023-02-01T19:58:26.256Z,2.20
2023-02-01T20:01:17.493Z,2.30
2023-02-01T20:04:07.540Z,2.95
2023-02-01T20:06:57.472Z,2.65
2023-02-01T20:09:47.949Z,2.53
2023-02-01T20:12:38.510Z,3.55
2023-02-01T20:15:28.885Z,2.60
2023-02-01T20:18:18.824Z,2.13
2023-02-01T20:21:08.719Z,2.97
2023-02-01T20:23:58.808Z,2.50
2023-02-01T20:26:49.981Z,2.70
2023-02-01T20:29:41.499Z,2.90
2023-02-01T20:32:31.402Z,2.92
2023-02-01T20:35:22.355Z,2.65
2023-02-01T20:38:14.802Z,2.33
2023-02-01T20:41:08.076Z,2.80
2023-02-01T20:43:58.297Z,2.60
2023-02-01T20:46:48.570Z,2.80
2023-02-01T20:49:40.473Z,2.67
2023-02-01T20:52:34.112Z,2.42
2023-02-01T20:55:25.232Z,3.28
2023-02-01T20:58:15.783Z,2.75
2023-02-01T21:01:06.715Z,2.83
2023-02-01T21:03:57.191Z,2.45
2023-02-01T21:06:48.180Z,2.50
2023-02-01T21:09:41.488Z,3.17
2023-02-01T21:12:32.094Z,2.03
2023-02-01T21:15:25.799Z,2.35
2023-02-01T21:18:15.949Z,2.78
2023-02-01T21:21:12.995Z,6.32
2023-02-01T21:24:03.997Z,2.38
2023-02-01T21:26:53.895Z,3.08
2023-02-01T21:29:44.307Z,2.88
2023-02-01T21:32:35.245Z,2.53
2023-02-01T21:35:25.779Z,3.00
2023-02-01T21:38:17.245Z,2.97
2023-02-01T21:41:26.112Z,2.25
2023-02-01T21:44:16.432Z,3.10
2023-02-01T21:47:07.889Z,2.50
2023-02-01T21:49:58.976Z,3.53
2023-02-01T21:52:49.382Z,2.95
2023-02-01T21:55:39.221Z,2.38
2023-02-01T21:58:29.114Z,2.75
2023-02-01T22:01:18.911Z,3.20
2023-02-01T22:04:10.330Z,2.92
2023-02-01T22:07:00.608Z,2.63
2023-02-01T22:09:50.845Z,2.85
2023-02-01T22:12:40.935Z,2.40
2023-02-01T22:15:30.897Z,2.60
2023-02-01T22:18:20.733Z,2.28
2023-02-01T22:21:10.663Z,2.20
2023-02-01T22:24:00.835Z,3.92
2023-02-01T22:26:51.049Z,2.10
2023-02-01T22:29:42.440Z,2.42
2023-02-01T22:32:32.512Z,2.15
2023-02-01T22:35:23.001Z,2.97
2023-02-01T22:38:13.165Z,2.33
2023-02-01T22:41:05.787Z,2.67
2023-02-01T22:43:55.987Z,2.40
2023-02-01T22:46:46.067Z,1.92
2023-02-01T22:49:36.243Z,2.17
2023-02-01T22:52:25.907Z,2.80
2023-02-01T22:55:15.801Z,2.50
2023-02-01T22:58:07.137Z,2.30
2023-02-01T23:01:07.883Z,2.50
2023-02-01T23:04:04.688Z,2.67
2023-02-01T23:06:54.819Z,2.58
2023-02-01T23:09:44.786Z,2.47
2023-02-01T23:12:34.767Z,2.47
2023-02-01T23:15:25.048Z,2.63
2023-02-01T23:18:15.505Z,2.05
2023-02-01T23:21:11.310Z,2.33
2023-02-01T23:24:02.430Z,2.20
2023-02-01T23:26:52.709Z,2.90
2023-02-01T23:29:43.105Z,2.30
2023-02-01T23:32:34.447Z,2.33
2023-02-01T23:35:24.895Z,2.65
2023-02-01T23:38:14.972Z,2.75
2023-02-01T23:41:06.843Z,2.13
2023-02-01T23:43:59.723Z,2.30
2023-02-01T23:46:49.751Z,2.47
2023-02-01T23:49:40.061Z,2.50
2023-02-01T23:52:29.979Z,2.53
2023-02-01T23:55:19.919Z,1.95
2023-02-01T23:58:09.883Z,2.17
